sensor_id;sensor_type;location;lat;lon;timestamp;temperature;humidity
8420;DHT22;4247;48.550;8.822;2022-08-11T00:00:10;18.00;72.90
8420;DHT22;4247;48.550;8.822;2022-08-11T00:02:40;18.00;72.10
8420;DHT22;4247;48.550;8.822;2022-08-11T00:05:09;18.00;71.80
8420;DHT22;4247;48.550;8.822;2022-08-11T00:07:44;18.10;72.10
8420;DHT22;4247;48.550;8.822;2022-08-11T00:10:13;18.10;71.30
8420;DHT22;4247;48.550;8.822;2022-08-11T00:12:41;18.10;71.40
8420;DHT22;4247;48.550;8.822;2022-08-11T00:15:10;18.10;72.30
8420;DHT22;4247;48.550;8.822;2022-08-11T00:17:38;18.10;72.30
8420;DHT22;4247;48.550;8.822;2022-08-11T00:20:08;18.10;72.20
8420;DHT22;4247;48.550;8.822;2022-08-11T00:22:37;18.10;71.90
8420;DHT22;4247;48.550;8.822;2022-08-11T00:25:12;18.10;72.50
8420;DHT22;4247;48.550;8.822;2022-08-11T00:27:40;18.10;72.70
8420;DHT22;4247;48.550;8.822;2022-08-11T00:30:10;18.10;73.00
8420;DHT22;4247;48.550;8.822;2022-08-11T00:32:40;18.10;73.10
8420;DHT22;4247;48.550;8.822;2022-08-11T00:35:10;18.00;72.00
8420;DHT22;4247;48.550;8.822;2022-08-11T00:37:38;18.00;72.90
8420;DHT22;4247;48.550;8.822;2022-08-11T00:40:19;18.00;72.40
8420;DHT22;4247;48.550;8.822;2022-08-11T00:42:57;18.00;73.00
8420;DHT22;4247;48.550;8.822;2022-08-11T00:45:31;18.00;73.10
8420;DHT22;4247;48.550;8.822;2022-08-11T00:48:03;18.00;73.80
8420;DHT22;4247;48.550;8.822;2022-08-11T00:50:40;17.90;73.50
8420;DHT22;4247;48.550;8.822;2022-08-11T00:53:35;17.90;73.40
8420;DHT22;4247;48.550;8.822;2022-08-11T00:59:47;17.90;73.70
8420;DHT22;4247;48.550;8.822;2022-08-11T01:02:35;17.90;73.90
8420;DHT22;4247;48.550;8.822;2022-08-11T01:05:27;17.80;73.10
8420;DHT22;4247;48.550;8.822;2022-08-11T01:08:50;17.80;72.40
8420;DHT22;4247;48.550;8.822;2022-08-11T01:11:45;17.80;72.40
8420;DHT22;4247;48.550;8.822;2022-08-11T01:24:28;17.60;74.40
8420;DHT22;4247;48.550;8.822;2022-08-11T01:27:14;17.50;73.40
8420;DHT22;4247;48.550;8.822;2022-08-11T01:36:37;17.40;74.10
8420;DHT22;4247;48.550;8.822;2022-08-11T01:42:49;17.40;75.40
8420;DHT22;4247;48.550;8.822;2022-08-11T01:45:41;17.40;74.30
8420;DHT22;4247;48.550;8.822;2022-08-11T01:48:21;17.30;76.40
8420;DHT22;4247;48.550;8.822;2022-08-11T01:51:02;17.30;74.50
8420;DHT22;4247;48.550;8.822;2022-08-11T01:53:43;17.30;74.90
8420;DHT22;4247;48.550;8.822;2022-08-11T01:56:31;17.30;76.70
8420;DHT22;4247;48.550;8.822;2022-08-11T01:59:08;17.30;76.50
8420;DHT22;4247;48.550;8.822;2022-08-11T02:01:44;17.30;75.50
8420;DHT22;4247;48.550;8.822;2022-08-11T02:04:21;17.30;75.80
8420;DHT22;4247;48.550;8.822;2022-08-11T02:06:57;17.20;76.10
8420;DHT22;4247;48.550;8.822;2022-08-11T02:12:53;17.20;77.80
8420;DHT22;4247;48.550;8.822;2022-08-11T02:15:26;17.10;75.80
8420;DHT22;4247;48.550;8.822;2022-08-11T02:18:04;17.10;75.60
8420;DHT22;4247;48.550;8.822;2022-08-11T02:20:36;17.00;77.10
8420;DHT22;4247;48.550;8.822;2022-08-11T02:23:28;17.00;76.60
8420;DHT22;4247;48.550;8.822;2022-08-11T02:26:15;17.00;76.90
8420;DHT22;4247;48.550;8.822;2022-08-11T02:28:55;17.00;77.80
8420;DHT22;4247;48.550;8.822;2022-08-11T02:31:36;17.00;77.00
8420;DHT22;4247;48.550;8.822;2022-08-11T02:34:34;16.90;77.20
8420;DHT22;4247;48.550;8.822;2022-08-11T02:37:13;16.90;78.10
8420;DHT22;4247;48.550;8.822;2022-08-11T02:39:48;16.90;78.00
8420;DHT22;4247;48.550;8.822;2022-08-11T02:42:27;16.80;78.00
8420;DHT22;4247;48.550;8.822;2022-08-11T02:45:07;16.80;78.10
8420;DHT22;4247;48.550;8.822;2022-08-11T02:47:47;16.70;77.20
8420;DHT22;4247;48.550;8.822;2022-08-11T02:50:36;16.70;78.40
8420;DHT22;4247;48.550;8.822;2022-08-11T02:53:10;16.70;78.40
8420;DHT22;4247;48.550;8.822;2022-08-11T02:55:50;16.60;82.50
8420;DHT22;4247;48.550;8.822;2022-08-11T02:58:32;16.60;80.80
8420;DHT22;4247;48.550;8.822;2022-08-11T03:01:12;16.40;83.30
8420;DHT22;4247;48.550;8.822;2022-08-11T03:03:49;16.30;82.80
8420;DHT22;4247;48.550;8.822;2022-08-11T03:06:28;16.30;81.30
8420;DHT22;4247;48.550;8.822;2022-08-11T03:09:05;16.20;82.60
8420;DHT22;4247;48.550;8.822;2022-08-11T03:11:49;16.20;82.40
8420;DHT22;4247;48.550;8.822;2022-08-11T03:14:42;16.10;82.70
8420;DHT22;4247;48.550;8.822;2022-08-11T03:17:32;16.00;84.90
8420;DHT22;4247;48.550;8.822;2022-08-11T03:20:22;15.90;84.70
8420;DHT22;4247;48.550;8.822;2022-08-11T03:22:59;15.90;84.80
8420;DHT22;4247;48.550;8.822;2022-08-11T03:25:33;15.80;86.40
8420;DHT22;4247;48.550;8.822;2022-08-11T03:28:13;15.70;85.60
8420;DHT22;4247;48.550;8.822;2022-08-11T03:30:49;15.70;86.80
8420;DHT22;4247;48.550;8.822;2022-08-11T03:33:22;15.60;85.80
8420;DHT22;4247;48.550;8.822;2022-08-11T03:36:14;15.70;85.20
8420;DHT22;4247;48.550;8.822;2022-08-11T03:38:50;15.60;87.90
8420;DHT22;4247;48.550;8.822;2022-08-11T03:41:25;15.60;87.60
8420;DHT22;4247;48.550;8.822;2022-08-11T03:44:31;15.60;86.00
8420;DHT22;4247;48.550;8.822;2022-08-11T03:47:24;15.60;88.10
8420;DHT22;4247;48.550;8.822;2022-08-11T03:50:03;15.60;87.50
8420;DHT22;4247;48.550;8.822;2022-08-11T03:52:47;15.60;86.20
8420;DHT22;4247;48.550;8.822;2022-08-11T03:55:22;15.70;85.90
8420;DHT22;4247;48.550;8.822;2022-08-11T04:01:37;15.60;87.30
8420;DHT22;4247;48.550;8.822;2022-08-11T04:04:36;15.60;87.60
8420;DHT22;4247;48.550;8.822;2022-08-11T04:07:53;15.60;87.10
8420;DHT22;4247;48.550;8.822;2022-08-11T04:10:36;15.50;89.10
8420;DHT22;4247;48.550;8.822;2022-08-11T04:13:49;15.50;88.00
8420;DHT22;4247;48.550;8.822;2022-08-11T04:16:46;15.50;89.80
8420;DHT22;4247;48.550;8.822;2022-08-11T04:22:34;15.50;90.50
8420;DHT22;4247;48.550;8.822;2022-08-11T04:25:23;15.50;90.50
8420;DHT22;4247;48.550;8.822;2022-08-11T04:28:25;15.50;90.50
8420;DHT22;4247;48.550;8.822;2022-08-11T04:31:05;15.50;91.20
8420;DHT22;4247;48.550;8.822;2022-08-11T04:33:48;15.40;90.10
8420;DHT22;4247;48.550;8.822;2022-08-11T04:40:11;15.50;90.90
8420;DHT22;4247;48.550;8.822;2022-08-11T04:43:14;15.50;91.30
8420;DHT22;4247;48.550;8.822;2022-08-11T04:49:30;15.60;90.60
8420;DHT22;4247;48.550;8.822;2022-08-11T04:56:02;15.80;90.90
8420;DHT22;4247;48.550;8.822;2022-08-11T04:59:07;15.90;89.70
8420;DHT22;4247;48.550;8.822;2022-08-11T05:02:17;16.00;89.40
8420;DHT22;4247;48.550;8.822;2022-08-11T05:04:59;16.10;90.30
8420;DHT22;4247;48.550;8.822;2022-08-11T05:10:54;16.30;89.10
8420;DHT22;4247;48.550;8.822;2022-08-11T05:13:28;16.40;88.40
8420;DHT22;4247;48.550;8.822;2022-08-11T05:16:17;16.50;86.80
8420;DHT22;4247;48.550;8.822;2022-08-11T05:19:03;16.60;87.70
8420;DHT22;4247;48.550;8.822;2022-08-11T05:21:52;16.70;88.40
8420;DHT22;4247;48.550;8.822;2022-08-11T05:24:42;16.80;88.10
8420;DHT22;4247;48.550;8.822;2022-08-11T05:27:31;16.90;88.70
8420;DHT22;4247;48.550;8.822;2022-08-11T05:30:18;17.00;88.50
8420;DHT22;4247;48.550;8.822;2022-08-11T05:33:05;17.10;88.20
8420;DHT22;4247;48.550;8.822;2022-08-11T05:35:58;17.20;88.00
8420;DHT22;4247;48.550;8.822;2022-08-11T05:38:29;17.30;88.30
8420;DHT22;4247;48.550;8.822;2022-08-11T05:41:19;17.40;89.00
8420;DHT22;4247;48.550;8.822;2022-08-11T05:44:05;17.40;88.20
8420;DHT22;4247;48.550;8.822;2022-08-11T05:46:52;17.50;86.30
8420;DHT22;4247;48.550;8.822;2022-08-11T05:49:37;17.60;88.10
8420;DHT22;4247;48.550;8.822;2022-08-11T05:52:24;17.70;86.40
8420;DHT22;4247;48.550;8.822;2022-08-11T05:55:10;17.80;88.10
8420;DHT22;4247;48.550;8.822;2022-08-11T05:57:55;17.80;87.60
8420;DHT22;4247;48.550;8.822;2022-08-11T06:00:22;17.90;87.30
8420;DHT22;4247;48.550;8.822;2022-08-11T06:02:54;18.00;87.40
8420;DHT22;4247;48.550;8.822;2022-08-11T06:05:24;18.10;87.00
8420;DHT22;4247;48.550;8.822;2022-08-11T06:07:57;18.20;86.80
8420;DHT22;4247;48.550;8.822;2022-08-11T06:10:27;18.20;86.80
8420;DHT22;4247;48.550;8.822;2022-08-11T06:12:57;18.30;86.20
8420;DHT22;4247;48.550;8.822;2022-08-11T06:15:27;18.30;86.60
8420;DHT22;4247;48.550;8.822;2022-08-11T06:17:58;18.40;85.90
8420;DHT22;4247;48.550;8.822;2022-08-11T06:20:26;18.50;86.70
8420;DHT22;4247;48.550;8.822;2022-08-11T06:23:01;18.50;86.60
8420;DHT22;4247;48.550;8.822;2022-08-11T06:25:30;18.60;86.50
8420;DHT22;4247;48.550;8.822;2022-08-11T06:28:02;18.70;86.20
8420;DHT22;4247;48.550;8.822;2022-08-11T06:30:33;18.70;85.40
8420;DHT22;4247;48.550;8.822;2022-08-11T06:33:08;18.80;85.50
8420;DHT22;4247;48.550;8.822;2022-08-11T06:35:44;18.90;85.40
8420;DHT22;4247;48.550;8.822;2022-08-11T06:38:16;18.90;85.20
8420;DHT22;4247;48.550;8.822;2022-08-11T06:40:52;19.00;85.10
8420;DHT22;4247;48.550;8.822;2022-08-11T06:43:45;19.10;85.30
8420;DHT22;4247;48.550;8.822;2022-08-11T06:46:14;19.20;85.10
8420;DHT22;4247;48.550;8.822;2022-08-11T06:48:45;19.30;85.20
8420;DHT22;4247;48.550;8.822;2022-08-11T06:51:12;19.30;85.20
8420;DHT22;4247;48.550;8.822;2022-08-11T06:53:41;19.40;85.20
8420;DHT22;4247;48.550;8.822;2022-08-11T06:56:09;19.50;85.50
8420;DHT22;4247;48.550;8.822;2022-08-11T06:58:56;19.50;84.50
8420;DHT22;4247;48.550;8.822;2022-08-11T07:01:56;19.60;84.50
8420;DHT22;4247;48.550;8.822;2022-08-11T07:04:29;19.70;85.50
8420;DHT22;4247;48.550;8.822;2022-08-11T07:07:11;19.80;84.00
8420;DHT22;4247;48.550;8.822;2022-08-11T07:10:19;19.90;83.50
8420;DHT22;4247;48.550;8.822;2022-08-11T07:13:07;20.00;83.20
8420;DHT22;4247;48.550;8.822;2022-08-11T07:15:56;20.10;83.00
8420;DHT22;4247;48.550;8.822;2022-08-11T07:18:26;20.20;82.80
8420;DHT22;4247;48.550;8.822;2022-08-11T07:21:23;20.30;82.20
8420;DHT22;4247;48.550;8.822;2022-08-11T07:24:14;20.30;81.80
8420;DHT22;4247;48.550;8.822;2022-08-11T07:27:00;20.40;81.90
8420;DHT22;4247;48.550;8.822;2022-08-11T07:29:49;20.50;82.40
8420;DHT22;4247;48.550;8.822;2022-08-11T07:32:23;20.50;81.20
8420;DHT22;4247;48.550;8.822;2022-08-11T07:34:55;20.70;82.10
8420;DHT22;4247;48.550;8.822;2022-08-11T07:37:29;20.80;81.20
8420;DHT22;4247;48.550;8.822;2022-08-11T07:39:58;20.80;80.60
8420;DHT22;4247;48.550;8.822;2022-08-11T07:42:28;20.90;80.20
8420;DHT22;4247;48.550;8.822;2022-08-11T07:44:56;21.00;81.30
8420;DHT22;4247;48.550;8.822;2022-08-11T07:47:42;21.00;80.10
8420;DHT22;4247;48.550;8.822;2022-08-11T07:50:30;21.10;79.10
8420;DHT22;4247;48.550;8.822;2022-08-11T07:53:17;21.30;80.20
8420;DHT22;4247;48.550;8.822;2022-08-11T07:55:47;21.40;80.50
8420;DHT22;4247;48.550;8.822;2022-08-11T07:58:15;21.60;80.50
8420;DHT22;4247;48.550;8.822;2022-08-11T08:00:59;21.70;79.70
8420;DHT22;4247;48.550;8.822;2022-08-11T08:03:45;21.90;79.20
8420;DHT22;4247;48.550;8.822;2022-08-11T08:06:32;22.10;78.10
8420;DHT22;4247;48.550;8.822;2022-08-11T08:09:19;22.30;77.60
8420;DHT22;4247;48.550;8.822;2022-08-11T08:12:06;22.50;77.30
8420;DHT22;4247;48.550;8.822;2022-08-11T08:14:53;22.70;75.60
8420;DHT22;4247;48.550;8.822;2022-08-11T08:17:40;22.70;75.20
8420;DHT22;4247;48.550;8.822;2022-08-11T08:20:25;22.80;74.90
8420;DHT22;4247;48.550;8.822;2022-08-11T08:22:54;22.80;75.40
8420;DHT22;4247;48.550;8.822;2022-08-11T08:25:25;22.80;73.90
8420;DHT22;4247;48.550;8.822;2022-08-11T08:27:54;22.80;74.90
8420;DHT22;4247;48.550;8.822;2022-08-11T08:30:21;23.00;74.90
8420;DHT22;4247;48.550;8.822;2022-08-11T08:33:07;23.00;73.60
8420;DHT22;4247;48.550;8.822;2022-08-11T08:35:35;23.00;73.20
8420;DHT22;4247;48.550;8.822;2022-08-11T08:38:03;23.00;73.10
8420;DHT22;4247;48.550;8.822;2022-08-11T08:40:31;23.10;71.90
8420;DHT22;4247;48.550;8.822;2022-08-11T08:43:02;23.00;70.90
8420;DHT22;4247;48.550;8.822;2022-08-11T08:45:33;23.10;71.20
8420;DHT22;4247;48.550;8.822;2022-08-11T08:48:03;23.20;71.10
8420;DHT22;4247;48.550;8.822;2022-08-11T08:50:37;23.20;72.00
8420;DHT22;4247;48.550;8.822;2022-08-11T08:53:28;23.30;70.60
8420;DHT22;4247;48.550;8.822;2022-08-11T08:56:00;23.30;70.40
8420;DHT22;4247;48.550;8.822;2022-08-11T08:58:28;23.30;69.80
8420;DHT22;4247;48.550;8.822;2022-08-11T09:00:58;23.30;69.00
8420;DHT22;4247;48.550;8.822;2022-08-11T09:03:26;23.40;70.20
8420;DHT22;4247;48.550;8.822;2022-08-11T09:05:54;23.50;68.90
8420;DHT22;4247;48.550;8.822;2022-08-11T09:08:23;23.40;68.60
8420;DHT22;4247;48.550;8.822;2022-08-11T09:10:50;23.50;68.70
8420;DHT22;4247;48.550;8.822;2022-08-11T09:13:34;23.50;67.90
8420;DHT22;4247;48.550;8.822;2022-08-11T09:16:01;23.50;68.80
8420;DHT22;4247;48.550;8.822;2022-08-11T09:18:28;23.50;68.60
8420;DHT22;4247;48.550;8.822;2022-08-11T09:20:57;23.50;67.90
8420;DHT22;4247;48.550;8.822;2022-08-11T09:23:25;23.60;67.70
8420;DHT22;4247;48.550;8.822;2022-08-11T09:26:12;23.60;67.80
8420;DHT22;4247;48.550;8.822;2022-08-11T09:28:59;23.60;67.30
8420;DHT22;4247;48.550;8.822;2022-08-11T09:31:30;23.60;67.80
8420;DHT22;4247;48.550;8.822;2022-08-11T09:33:58;23.60;68.30
8420;DHT22;4247;48.550;8.822;2022-08-11T09:36:27;23.70;68.40
8420;DHT22;4247;48.550;8.822;2022-08-11T09:39:20;23.70;67.20
8420;DHT22;4247;48.550;8.822;2022-08-11T09:42:04;23.70;67.00
8420;DHT22;4247;48.550;8.822;2022-08-11T09:44:34;23.70;65.70
8420;DHT22;4247;48.550;8.822;2022-08-11T09:47:18;23.80;66.50
8420;DHT22;4247;48.550;8.822;2022-08-11T09:49:48;24.00;65.60
8420;DHT22;4247;48.550;8.822;2022-08-11T09:52:18;24.10;66.00
8420;DHT22;4247;48.550;8.822;2022-08-11T09:54:47;24.10;65.70
8420;DHT22;4247;48.550;8.822;2022-08-11T09:57:17;24.10;65.90
8420;DHT22;4247;48.550;8.822;2022-08-11T10:00:06;24.20;66.10
8420;DHT22;4247;48.550;8.822;2022-08-11T10:02:34;24.10;64.20
8420;DHT22;4247;48.550;8.822;2022-08-11T10:05:03;24.20;65.10
8420;DHT22;4247;48.550;8.822;2022-08-11T10:07:46;24.20;65.40
8420;DHT22;4247;48.550;8.822;2022-08-11T10:10:18;24.20;63.90
8420;DHT22;4247;48.550;8.822;2022-08-11T10:12:50;24.20;64.10
8420;DHT22;4247;48.550;8.822;2022-08-11T10:15:19;24.30;64.90
8420;DHT22;4247;48.550;8.822;2022-08-11T10:18:04;24.30;65.00
8420;DHT22;4247;48.550;8.822;2022-08-11T10:20:51;24.40;64.30
8420;DHT22;4247;48.550;8.822;2022-08-11T10:23:21;24.40;64.10
8420;DHT22;4247;48.550;8.822;2022-08-11T10:26:07;24.50;63.00
8420;DHT22;4247;48.550;8.822;2022-08-11T10:28:52;24.50;62.50
8420;DHT22;4247;48.550;8.822;2022-08-11T10:31:22;24.60;60.90
8420;DHT22;4247;48.550;8.822;2022-08-11T10:34:07;24.60;62.20
8420;DHT22;4247;48.550;8.822;2022-08-11T10:36:37;24.70;61.10
8420;DHT22;4247;48.550;8.822;2022-08-11T10:39:13;24.60;61.40
8420;DHT22;4247;48.550;8.822;2022-08-11T10:41:42;24.70;63.50
8420;DHT22;4247;48.550;8.822;2022-08-11T10:44:27;24.70;61.50
8420;DHT22;4247;48.550;8.822;2022-08-11T10:46:56;24.80;61.90
8420;DHT22;4247;48.550;8.822;2022-08-11T10:49:41;25.00;61.30
8420;DHT22;4247;48.550;8.822;2022-08-11T10:52:08;25.10;58.40
8420;DHT22;4247;48.550;8.822;2022-08-11T10:54:53;25.10;58.10
8420;DHT22;4247;48.550;8.822;2022-08-11T10:57:38;25.20;57.60
8420;DHT22;4247;48.550;8.822;2022-08-11T11:00:23;25.20;58.70
8420;DHT22;4247;48.550;8.822;2022-08-11T11:02:51;25.30;58.30
8420;DHT22;4247;48.550;8.822;2022-08-11T11:05:23;25.40;57.10
8420;DHT22;4247;48.550;8.822;2022-08-11T11:07:57;25.30;56.60
8420;DHT22;4247;48.550;8.822;2022-08-11T11:10:29;25.40;56.60
8420;DHT22;4247;48.550;8.822;2022-08-11T11:12:57;25.30;57.00
8420;DHT22;4247;48.550;8.822;2022-08-11T11:15:45;25.40;57.10
8420;DHT22;4247;48.550;8.822;2022-08-11T11:18:33;25.30;56.50
8420;DHT22;4247;48.550;8.822;2022-08-11T11:21:04;25.30;57.50
8420;DHT22;4247;48.550;8.822;2022-08-11T11:23:35;25.30;57.00
8420;DHT22;4247;48.550;8.822;2022-08-11T11:26:26;25.30;57.40
8420;DHT22;4247;48.550;8.822;2022-08-11T11:29:23;25.30;57.80
8420;DHT22;4247;48.550;8.822;2022-08-11T11:32:15;25.30;56.70
8420;DHT22;4247;48.550;8.822;2022-08-11T11:35:25;25.50;55.40
8420;DHT22;4247;48.550;8.822;2022-08-11T11:37:55;25.50;55.30
8420;DHT22;4247;48.550;8.822;2022-08-11T11:40:22;25.50;56.80
8420;DHT22;4247;48.550;8.822;2022-08-11T11:42:53;25.50;54.60
8420;DHT22;4247;48.550;8.822;2022-08-11T11:45:23;25.60;55.30
8420;DHT22;4247;48.550;8.822;2022-08-11T11:47:52;25.60;54.00
8420;DHT22;4247;48.550;8.822;2022-08-11T11:50:26;25.60;55.70
8420;DHT22;4247;48.550;8.822;2022-08-11T11:52:54;25.60;56.60
8420;DHT22;4247;48.550;8.822;2022-08-11T11:55:23;25.60;55.40
8420;DHT22;4247;48.550;8.822;2022-08-11T11:57:51;25.60;56.90
8420;DHT22;4247;48.550;8.822;2022-08-11T12:00:37;25.60;55.50
8420;DHT22;4247;48.550;8.822;2022-08-11T12:03:23;25.60;53.70
8420;DHT22;4247;48.550;8.822;2022-08-11T12:05:52;25.60;53.40
8420;DHT22;4247;48.550;8.822;2022-08-11T12:08:20;25.60;53.60
8420;DHT22;4247;48.550;8.822;2022-08-11T12:10:49;25.70;52.70
8420;DHT22;4247;48.550;8.822;2022-08-11T12:13:41;25.70;54.40
8420;DHT22;4247;48.550;8.822;2022-08-11T12:16:09;25.70;54.30
8420;DHT22;4247;48.550;8.822;2022-08-11T12:18:36;25.70;53.70
8420;DHT22;4247;48.550;8.822;2022-08-11T12:21:06;25.70;54.30
8420;DHT22;4247;48.550;8.822;2022-08-11T12:23:35;25.80;52.70
8420;DHT22;4247;48.550;8.822;2022-08-11T12:26:28;25.80;52.20
8420;DHT22;4247;48.550;8.822;2022-08-11T12:29:14;25.90;53.00
8420;DHT22;4247;48.550;8.822;2022-08-11T12:31:42;26.00;52.90
8420;DHT22;4247;48.550;8.822;2022-08-11T12:34:12;26.10;51.90
8420;DHT22;4247;48.550;8.822;2022-08-11T12:36:45;26.10;52.60
8420;DHT22;4247;48.550;8.822;2022-08-11T12:39:18;26.20;53.40
8420;DHT22;4247;48.550;8.822;2022-08-11T12:42:07;26.20;51.40
8420;DHT22;4247;48.550;8.822;2022-08-11T12:44:53;26.20;51.80
8420;DHT22;4247;48.550;8.822;2022-08-11T12:47:39;26.20;51.00
8420;DHT22;4247;48.550;8.822;2022-08-11T12:50:21;26.20;51.00
8420;DHT22;4247;48.550;8.822;2022-08-11T12:53:08;26.20;50.40
8420;DHT22;4247;48.550;8.822;2022-08-11T12:55:37;26.20;51.40
8420;DHT22;4247;48.550;8.822;2022-08-11T12:58:24;26.10;51.80
8420;DHT22;4247;48.550;8.822;2022-08-11T13:00:53;26.20;51.30
8420;DHT22;4247;48.550;8.822;2022-08-11T13:03:37;26.20;51.50
8420;DHT22;4247;48.550;8.822;2022-08-11T13:06:23;26.20;50.50
8420;DHT22;4247;48.550;8.822;2022-08-11T13:08:52;26.10;51.00
8420;DHT22;4247;48.550;8.822;2022-08-11T13:11:22;26.00;50.80
8420;DHT22;4247;48.550;8.822;2022-08-11T13:14:07;26.00;52.30
8420;DHT22;4247;48.550;8.822;2022-08-11T13:16:36;26.10;51.50
8420;DHT22;4247;48.550;8.822;2022-08-11T13:19:19;26.10;51.20
8420;DHT22;4247;48.550;8.822;2022-08-11T13:21:46;26.10;51.60
8420;DHT22;4247;48.550;8.822;2022-08-11T13:24:14;26.10;51.60
8420;DHT22;4247;48.550;8.822;2022-08-11T13:26:43;26.20;51.80
8420;DHT22;4247;48.550;8.822;2022-08-11T13:29:11;26.20;51.70
8420;DHT22;4247;48.550;8.822;2022-08-11T13:31:39;26.20;51.00
8420;DHT22;4247;48.550;8.822;2022-08-11T13:34:09;26.10;51.30
8420;DHT22;4247;48.550;8.822;2022-08-11T13:36:36;26.10;51.50
8420;DHT22;4247;48.550;8.822;2022-08-11T13:39:03;26.20;51.60
8420;DHT22;4247;48.550;8.822;2022-08-11T13:41:32;26.20;51.50
8420;DHT22;4247;48.550;8.822;2022-08-11T13:44:07;26.20;52.10
8420;DHT22;4247;48.550;8.822;2022-08-11T13:46:35;26.30;51.00
8420;DHT22;4247;48.550;8.822;2022-08-11T13:49:03;26.30;50.40
8420;DHT22;4247;48.550;8.822;2022-08-11T13:51:34;26.40;49.80
8420;DHT22;4247;48.550;8.822;2022-08-11T13:54:04;26.40;49.60
8420;DHT22;4247;48.550;8.822;2022-08-11T13:56:34;26.40;50.90
8420;DHT22;4247;48.550;8.822;2022-08-11T13:59:04;26.40;51.40
8420;DHT22;4247;48.550;8.822;2022-08-11T14:01:34;26.40;50.10
8420;DHT22;4247;48.550;8.822;2022-08-11T14:04:07;26.30;51.20
8420;DHT22;4247;48.550;8.822;2022-08-11T14:06:39;26.50;50.40
8420;DHT22;4247;48.550;8.822;2022-08-11T14:09:07;26.60;50.40
8420;DHT22;4247;48.550;8.822;2022-08-11T14:11:38;26.60;49.90
8420;DHT22;4247;48.550;8.822;2022-08-11T14:14:26;26.50;48.80
8420;DHT22;4247;48.550;8.822;2022-08-11T14:17:00;26.50;49.60
8420;DHT22;4247;48.550;8.822;2022-08-11T14:19:30;26.50;49.30
8420;DHT22;4247;48.550;8.822;2022-08-11T14:22:00;26.50;48.80
8420;DHT22;4247;48.550;8.822;2022-08-11T14:24:34;26.60;49.40
8420;DHT22;4247;48.550;8.822;2022-08-11T14:27:04;26.50;49.40
8420;DHT22;4247;48.550;8.822;2022-08-11T14:29:32;26.60;49.80
8420;DHT22;4247;48.550;8.822;2022-08-11T14:32:04;26.60;50.40
8420;DHT22;4247;48.550;8.822;2022-08-11T14:34:33;26.50;49.70
8420;DHT22;4247;48.550;8.822;2022-08-11T14:37:03;26.60;50.40
8420;DHT22;4247;48.550;8.822;2022-08-11T14:39:33;26.50;49.90
8420;DHT22;4247;48.550;8.822;2022-08-11T14:42:03;26.50;49.80
8420;DHT22;4247;48.550;8.822;2022-08-11T14:44:51;26.60;50.40
8420;DHT22;4247;48.550;8.822;2022-08-11T14:47:37;26.70;50.20
8420;DHT22;4247;48.550;8.822;2022-08-11T14:50:07;26.70;49.00
8420;DHT22;4247;48.550;8.822;2022-08-11T14:52:43;26.70;49.30
8420;DHT22;4247;48.550;8.822;2022-08-11T14:55:11;26.70;49.10
8420;DHT22;4247;48.550;8.822;2022-08-11T14:57:58;26.60;50.90
8420;DHT22;4247;48.550;8.822;2022-08-11T15:00:26;26.60;49.70
8420;DHT22;4247;48.550;8.822;2022-08-11T15:02:53;26.70;50.90
8420;DHT22;4247;48.550;8.822;2022-08-11T15:05:35;26.70;50.30
8420;DHT22;4247;48.550;8.822;2022-08-11T15:08:03;26.70;50.40
8420;DHT22;4247;48.550;8.822;2022-08-11T15:10:31;26.80;50.20
8420;DHT22;4247;48.550;8.822;2022-08-11T15:13:00;26.80;49.30
8420;DHT22;4247;48.550;8.822;2022-08-11T15:15:28;26.80;49.10
8420;DHT22;4247;48.550;8.822;2022-08-11T15:18:14;26.80;49.90
8420;DHT22;4247;48.550;8.822;2022-08-11T15:20:42;26.90;49.30
8420;DHT22;4247;48.550;8.822;2022-08-11T15:23:27;26.90;49.80
8420;DHT22;4247;48.550;8.822;2022-08-11T15:26:13;26.90;50.10
8420;DHT22;4247;48.550;8.822;2022-08-11T15:28:45;26.90;49.40
8420;DHT22;4247;48.550;8.822;2022-08-11T15:31:30;26.80;48.50
8420;DHT22;4247;48.550;8.822;2022-08-11T15:34:18;26.80;48.50
8420;DHT22;4247;48.550;8.822;2022-08-11T15:37:18;26.80;48.80
8420;DHT22;4247;48.550;8.822;2022-08-11T15:40:06;26.70;48.70
8420;DHT22;4247;48.550;8.822;2022-08-11T15:42:57;26.70;49.10
8420;DHT22;4247;48.550;8.822;2022-08-11T15:45:44;26.70;49.50
8420;DHT22;4247;48.550;8.822;2022-08-11T15:48:33;26.70;50.20
8420;DHT22;4247;48.550;8.822;2022-08-11T15:51:07;26.70;50.00
8420;DHT22;4247;48.550;8.822;2022-08-11T15:53:40;26.70;49.10
8420;DHT22;4247;48.550;8.822;2022-08-11T15:56:09;26.70;49.10
8420;DHT22;4247;48.550;8.822;2022-08-11T15:58:46;26.60;49.10
8420;DHT22;4247;48.550;8.822;2022-08-11T16:01:35;26.70;49.00
8420;DHT22;4247;48.550;8.822;2022-08-11T16:04:23;26.60;49.30
8420;DHT22;4247;48.550;8.822;2022-08-11T16:06:53;26.60;49.40
8420;DHT22;4247;48.550;8.822;2022-08-11T16:09:25;26.60;48.60
8420;DHT22;4247;48.550;8.822;2022-08-11T16:12:01;26.60;49.20
8420;DHT22;4247;48.550;8.822;2022-08-11T16:14:33;26.60;49.20
8420;DHT22;4247;48.550;8.822;2022-08-11T16:17:23;26.50;49.00
8420;DHT22;4247;48.550;8.822;2022-08-11T16:19:53;26.50;49.10
8420;DHT22;4247;48.550;8.822;2022-08-11T16:22:25;26.50;49.30
8420;DHT22;4247;48.550;8.822;2022-08-11T16:25:00;26.50;48.80
8420;DHT22;4247;48.550;8.822;2022-08-11T16:27:30;26.50;49.60
8420;DHT22;4247;48.550;8.822;2022-08-11T16:29:59;26.60;50.80
8420;DHT22;4247;48.550;8.822;2022-08-11T16:32:31;26.50;49.70
8420;DHT22;4247;48.550;8.822;2022-08-11T16:35:02;26.50;49.50
8420;DHT22;4247;48.550;8.822;2022-08-11T16:37:47;26.50;49.80
8420;DHT22;4247;48.550;8.822;2022-08-11T16:40:32;26.50;49.50
8420;DHT22;4247;48.550;8.822;2022-08-11T16:43:02;26.50;50.00
8420;DHT22;4247;48.550;8.822;2022-08-11T16:45:48;26.50;50.00
8420;DHT22;4247;48.550;8.822;2022-08-11T16:48:36;26.40;49.40
8420;DHT22;4247;48.550;8.822;2022-08-11T16:51:05;26.40;49.80
8420;DHT22;4247;48.550;8.822;2022-08-11T16:53:32;26.30;49.60
8420;DHT22;4247;48.550;8.822;2022-08-11T16:56:02;26.30;49.90
8420;DHT22;4247;48.550;8.822;2022-08-11T16:58:30;26.20;50.30
8420;DHT22;4247;48.550;8.822;2022-08-11T17:01:20;26.20;50.70
8420;DHT22;4247;48.550;8.822;2022-08-11T17:03:52;26.20;49.70
8420;DHT22;4247;48.550;8.822;2022-08-11T17:06:42;26.20;49.90
8420;DHT22;4247;48.550;8.822;2022-08-11T17:09:29;26.10;50.00
8420;DHT22;4247;48.550;8.822;2022-08-11T17:12:18;26.10;51.40
8420;DHT22;4247;48.550;8.822;2022-08-11T17:15:07;26.10;50.30
8420;DHT22;4247;48.550;8.822;2022-08-11T17:17:57;26.10;50.40
8420;DHT22;4247;48.550;8.822;2022-08-11T17:20:27;26.00;50.20
8420;DHT22;4247;48.550;8.822;2022-08-11T17:22:54;26.00;50.90
8420;DHT22;4247;48.550;8.822;2022-08-11T17:25:39;26.00;51.20
8420;DHT22;4247;48.550;8.822;2022-08-11T17:28:07;25.90;51.70
8420;DHT22;4247;48.550;8.822;2022-08-11T17:30:37;25.90;51.40
8420;DHT22;4247;48.550;8.822;2022-08-11T17:33:23;25.90;51.80
8420;DHT22;4247;48.550;8.822;2022-08-11T17:36:09;25.80;51.00
8420;DHT22;4247;48.550;8.822;2022-08-11T17:38:37;25.70;51.10
8420;DHT22;4247;48.550;8.822;2022-08-11T17:41:06;25.70;52.20
8420;DHT22;4247;48.550;8.822;2022-08-11T17:43:53;25.70;52.30
8420;DHT22;4247;48.550;8.822;2022-08-11T17:46:38;25.60;51.70
8420;DHT22;4247;48.550;8.822;2022-08-11T17:49:24;25.60;52.00
8420;DHT22;4247;48.550;8.822;2022-08-11T17:51:53;25.50;52.50
8420;DHT22;4247;48.550;8.822;2022-08-11T17:54:38;25.50;52.00
8420;DHT22;4247;48.550;8.822;2022-08-11T17:57:25;25.40;52.30
8420;DHT22;4247;48.550;8.822;2022-08-11T18:00:10;25.30;52.50